DBEST EDDM-EGCC
Flight info
| Callsign | DBEST |
|---|---|
| Flight time | 1h 35m |
| Altitude | 42000 |
| Route | INPUD2S INPUD Y102 ALIBU DCT MASEK DCT ARPEG DCT GALSO Q63 ERING L179 LAM UN57 WELIN T420 ELVOS |
| Aircraft | C750/M-SBDE3FGHRWXY/S |
Departure
| Time | 2026-05-07 17:27 |
|---|---|
| Airport | Munich Airport (EDDM) |
Arrival
| Time | 2026-05-07 19:03 |
|---|---|
| Airport | Manchester Airport (EGCC) |
| Time | Latitude | Longitude | Altitude | Speed | Heading |
|---|---|---|---|---|---|
| 2026-05-07 16:37 | 48.34686 | 11.77267 | 1482 ft | 0 kts | 263° |
| 2026-05-07 17:15 | 48.34685 | 11.77262 | 1470 ft | 2 kts | 263° |
| 2026-05-07 17:16 | 48.34684 | 11.77249 | 1471 ft | 2 kts | 263° |
| 2026-05-07 17:16 | 48.34702 | 11.77215 | 1482 ft | 7 kts | 327° |
| 2026-05-07 17:16 | 48.34773 | 11.77197 | 1476 ft | 13 kts | 359° |
| 2026-05-07 17:16 | 48.34794 | 11.77261 | 1482 ft | 8 kts | 82° |
| 2026-05-07 17:17 | 48.34797 | 11.77338 | 1475 ft | 7 kts | 96° |
| 2026-05-07 17:17 | 48.34772 | 11.77394 | 1472 ft | 7 kts | 153° |
| 2026-05-07 17:17 | 48.34731 | 11.77404 | 1482 ft | 5 kts | 174° |
| 2026-05-07 17:17 | 48.34697 | 11.77409 | 1480 ft | 4 kts | 175° |
| 2026-05-07 17:18 | 48.34685 | 11.77412 | 1482 ft | 0 kts | 173° |
| 2026-05-07 17:21 | 48.34659 | 11.77420 | 1478 ft | 6 kts | 159° |
| 2026-05-07 17:21 | 48.34632 | 11.77477 | 1474 ft | 8 kts | 97° |
| 2026-05-07 17:21 | 48.34640 | 11.77581 | 1476 ft | 12 kts | 85° |
| 2026-05-07 17:21 | 48.34650 | 11.77712 | 1482 ft | 12 kts | 82° |
| 2026-05-07 17:22 | 48.34660 | 11.77832 | 1482 ft | 11 kts | 83° |
| 2026-05-07 17:22 | 48.34670 | 11.77969 | 1482 ft | 16 kts | 83° |
| 2026-05-07 17:22 | 48.34683 | 11.78130 | 1475 ft | 16 kts | 83° |
| 2026-05-07 17:22 | 48.34696 | 11.78298 | 1472 ft | 16 kts | 83° |
| 2026-05-07 17:23 | 48.34708 | 11.78454 | 1482 ft | 14 kts | 83° |
| 2026-05-07 17:23 | 48.34719 | 11.78597 | 1482 ft | 13 kts | 83° |
| 2026-05-07 17:23 | 48.34709 | 11.78717 | 1472 ft | 11 kts | 133° |
| 2026-05-07 17:23 | 48.34644 | 11.78738 | 1482 ft | 9 kts | 173° |
| 2026-05-07 17:24 | 48.34565 | 11.78723 | 1476 ft | 12 kts | 212° |
| 2026-05-07 17:24 | 48.34515 | 11.78634 | 1482 ft | 10 kts | 232° |
| 2026-05-07 17:24 | 48.34474 | 11.78551 | 1482 ft | 9 kts | 234° |
| 2026-05-07 17:24 | 48.34463 | 11.78527 | 1482 ft | 0 kts | 233° |
| 2026-05-07 17:26 | 48.34459 | 11.78520 | 1482 ft | 3 kts | 233° |
| 2026-05-07 17:26 | 48.34411 | 11.78427 | 1477 ft | 20 kts | 232° |
| 2026-05-07 17:26 | 48.34317 | 11.78273 | 1482 ft | 18 kts | 242° |
| 2026-05-07 17:27 | 48.34282 | 11.77891 | 1482 ft | 83 kts | 264° |
| 2026-05-07 17:27 | 48.34186 | 11.76597 | 1688 ft | 138 kts | 265° |
| 2026-05-07 17:27 | 48.34089 | 11.75106 | 2388 ft | 149 kts | 270° |
| 2026-05-07 17:27 | 48.34055 | 11.73514 | 3144 ft | 156 kts | 269° |
| 2026-05-07 17:28 | 48.33940 | 11.71843 | 3879 ft | 165 kts | 265° |
| 2026-05-07 17:28 | 48.33782 | 11.70069 | 4643 ft | 178 kts | 263° |
| 2026-05-07 17:28 | 48.33655 | 11.68169 | 5455 ft | 188 kts | 272° |
| 2026-05-07 17:28 | 48.34110 | 11.66296 | 6285 ft | 198 kts | 304° |
| 2026-05-07 17:29 | 48.35211 | 11.64942 | 6980 ft | 221 kts | 333° |
| 2026-05-07 17:29 | 48.36848 | 11.64371 | 7085 ft | 263 kts | 348° |
| 2026-05-07 17:29 | 48.38710 | 11.64013 | 7080 ft | 270 kts | 350° |
| 2026-05-07 17:29 | 48.40577 | 11.63624 | 7063 ft | 271 kts | 348° |
| 2026-05-07 17:30 | 48.42435 | 11.63171 | 7053 ft | 272 kts | 348° |
| 2026-05-07 17:30 | 48.44347 | 11.62713 | 7783 ft | 275 kts | 348° |
| 2026-05-07 17:30 | 48.46224 | 11.62283 | 9054 ft | 275 kts | 347° |
| 2026-05-07 17:30 | 48.48148 | 11.61829 | 9943 ft | 283 kts | 347° |
| 2026-05-07 17:31 | 48.50107 | 11.61279 | 10552 ft | 295 kts | 341° |
| 2026-05-07 17:31 | 48.52115 | 11.60173 | 10682 ft | 320 kts | 334° |
| 2026-05-07 17:31 | 48.54241 | 11.58773 | 10852 ft | 343 kts | 333° |
| 2026-05-07 17:31 | 48.56477 | 11.57465 | 11647 ft | 345 kts | 337° |
| 2026-05-07 17:32 | 48.58773 | 11.56329 | 12372 ft | 350 kts | 339° |
| 2026-05-07 17:32 | 48.61092 | 11.55138 | 13089 ft | 353 kts | 337° |
| 2026-05-07 17:32 | 48.63408 | 11.53845 | 13801 ft | 357 kts | 336° |
| 2026-05-07 17:32 | 48.64957 | 11.52982 | 14222 ft | 359 kts | 336° |
| 2026-05-07 17:33 | 48.68127 | 11.51286 | 15091 ft | 363 kts | 337° |
| 2026-05-07 17:33 | 48.70511 | 11.50013 | 15747 ft | 365 kts | 337° |
| 2026-05-07 17:33 | 48.72912 | 11.48705 | 16421 ft | 368 kts | 337° |
| 2026-05-07 17:33 | 48.75331 | 11.47386 | 17117 ft | 371 kts | 337° |
| 2026-05-07 17:34 | 48.77764 | 11.46070 | 17825 ft | 374 kts | 337° |
| 2026-05-07 17:34 | 48.80224 | 11.44738 | 18512 ft | 377 kts | 337° |
| 2026-05-07 17:34 | 48.82702 | 11.43389 | 19162 ft | 380 kts | 337° |
| 2026-05-07 17:34 | 48.85204 | 11.42026 | 19818 ft | 383 kts | 337° |
| 2026-05-07 17:35 | 48.87729 | 11.40652 | 20469 ft | 387 kts | 337° |
| 2026-05-07 17:35 | 48.90272 | 11.39265 | 21118 ft | 390 kts | 337° |
| 2026-05-07 17:35 | 48.92831 | 11.37868 | 21758 ft | 393 kts | 337° |
| 2026-05-07 17:35 | 48.95380 | 11.36475 | 22304 ft | 396 kts | 337° |
| 2026-05-07 17:36 | 48.98016 | 11.35032 | 22928 ft | 400 kts | 338° |
| 2026-05-07 17:36 | 49.00656 | 11.33585 | 23481 ft | 405 kts | 338° |
| 2026-05-07 17:36 | 49.03314 | 11.32129 | 24009 ft | 408 kts | 338° |
| 2026-05-07 17:36 | 49.05994 | 11.30658 | 24536 ft | 410 kts | 338° |
| 2026-05-07 17:37 | 49.08687 | 11.29177 | 25060 ft | 413 kts | 338° |
| 2026-05-07 17:37 | 49.11402 | 11.27683 | 25573 ft | 416 kts | 338° |
| 2026-05-07 17:37 | 49.14133 | 11.26179 | 26083 ft | 419 kts | 338° |
| 2026-05-07 17:37 | 49.16885 | 11.24662 | 26617 ft | 422 kts | 338° |
| 2026-05-07 17:38 | 49.19652 | 11.23133 | 27131 ft | 424 kts | 338° |
| 2026-05-07 17:38 | 49.22442 | 11.21589 | 27629 ft | 428 kts | 338° |
| 2026-05-07 17:38 | 49.25216 | 11.20028 | 28139 ft | 432 kts | 338° |
| 2026-05-07 17:38 | 49.28071 | 11.18396 | 28674 ft | 435 kts | 338° |
| 2026-05-07 17:39 | 49.30881 | 11.16802 | 29157 ft | 438 kts | 338° |
| 2026-05-07 17:39 | 49.33756 | 11.15181 | 29568 ft | 443 kts | 338° |
| 2026-05-07 17:39 | 49.36660 | 11.13538 | 30075 ft | 446 kts | 338° |
| 2026-05-07 17:39 | 49.39575 | 11.11877 | 30479 ft | 449 kts | 338° |
| 2026-05-07 17:40 | 49.42521 | 11.10200 | 30850 ft | 453 kts | 338° |
| 2026-05-07 17:40 | 49.45488 | 11.08513 | 31320 ft | 455 kts | 338° |
| 2026-05-07 17:40 | 49.48455 | 11.06823 | 31858 ft | 455 kts | 338° |
| 2026-05-07 17:40 | 49.51459 | 11.05089 | 32385 ft | 454 kts | 337° |
| 2026-05-07 17:41 | 49.54233 | 11.02936 | 32867 ft | 453 kts | 327° |
| 2026-05-07 17:41 | 49.56915 | 11.00389 | 33446 ft | 452 kts | 327° |
| 2026-05-07 17:41 | 49.59603 | 10.97864 | 34013 ft | 452 kts | 327° |
| 2026-05-07 17:41 | 49.62299 | 10.95352 | 34479 ft | 453 kts | 327° |
| 2026-05-07 17:42 | 49.64986 | 10.92822 | 34923 ft | 453 kts | 327° |
| 2026-05-07 17:42 | 49.67677 | 10.90268 | 35363 ft | 454 kts | 326° |
| 2026-05-07 17:42 | 49.70376 | 10.87713 | 35812 ft | 456 kts | 327° |
| 2026-05-07 17:42 | 49.73086 | 10.85155 | 36274 ft | 456 kts | 327° |
| 2026-05-07 17:43 | 49.75790 | 10.82597 | 36750 ft | 457 kts | 326° |
| 2026-05-07 17:43 | 49.78502 | 10.80021 | 37230 ft | 457 kts | 326° |
| 2026-05-07 17:43 | 49.81217 | 10.77439 | 37710 ft | 458 kts | 326° |
| 2026-05-07 17:43 | 49.83932 | 10.74859 | 38196 ft | 459 kts | 326° |
| 2026-05-07 17:44 | 49.86655 | 10.72267 | 38690 ft | 460 kts | 326° |
| 2026-05-07 17:44 | 49.89382 | 10.69665 | 39090 ft | 460 kts | 326° |
| 2026-05-07 17:44 | 49.92110 | 10.67059 | 39495 ft | 460 kts | 326° |
| 2026-05-07 17:44 | 49.93954 | 10.65297 | 39776 ft | 461 kts | 326° |
| 2026-05-07 17:45 | 49.97565 | 10.61842 | 40300 ft | 461 kts | 326° |
| 2026-05-07 17:45 | 49.99412 | 10.60070 | 40583 ft | 462 kts | 326° |
| 2026-05-07 17:45 | 50.02146 | 10.57442 | 40993 ft | 462 kts | 326° |
| 2026-05-07 17:45 | 50.04881 | 10.54811 | 41409 ft | 462 kts | 326° |
| 2026-05-07 17:46 | 50.07617 | 10.52177 | 41846 ft | 462 kts | 326° |
| 2026-05-07 17:46 | 50.10350 | 10.49542 | 42260 ft | 462 kts | 326° |
| 2026-05-07 17:46 | 50.13083 | 10.46901 | 42658 ft | 462 kts | 326° |
| 2026-05-07 17:46 | 50.15814 | 10.44260 | 43036 ft | 463 kts | 325° |
| 2026-05-07 17:47 | 50.21385 | 10.38858 | 43056 ft | 481 kts | 326° |
| 2026-05-07 17:47 | 50.27176 | 10.33265 | 43063 ft | 497 kts | 326° |
| 2026-05-07 17:48 | 50.33131 | 10.27495 | 43062 ft | 509 kts | 326° |
| 2026-05-07 17:48 | 50.38874 | 10.21026 | 43037 ft | 514 kts | 314° |
| 2026-05-07 17:49 | 50.43621 | 10.12559 | 43068 ft | 515 kts | 307° |
| 2026-05-07 17:49 | 50.48346 | 10.04083 | 43069 ft | 516 kts | 310° |
| 2026-05-07 17:50 | 50.53073 | 9.95716 | 43062 ft | 515 kts | 308° |
| 2026-05-07 17:50 | 50.57763 | 9.87195 | 43067 ft | 515 kts | 309° |
| 2026-05-07 17:51 | 50.62498 | 9.78734 | 43060 ft | 515 kts | 307° |
| 2026-05-07 17:51 | 50.66170 | 9.69173 | 43057 ft | 509 kts | 290° |
| 2026-05-07 17:52 | 50.68101 | 9.58507 | 43071 ft | 506 kts | 280° |
| 2026-05-07 17:52 | 50.69617 | 9.47657 | 43066 ft | 507 kts | 283° |
| 2026-05-07 17:53 | 50.71875 | 9.37117 | 43077 ft | 508 kts | 288° |
| 2026-05-07 17:53 | 50.73894 | 9.26429 | 43067 ft | 508 kts | 283° |
| 2026-05-07 17:54 | 50.75953 | 9.15754 | 43071 ft | 508 kts | 286° |
| 2026-05-07 17:54 | 50.78012 | 9.05087 | 43071 ft | 508 kts | 284° |
| 2026-05-07 17:55 | 50.80023 | 8.94403 | 43068 ft | 508 kts | 285° |
| 2026-05-07 17:55 | 50.82068 | 8.83713 | 43073 ft | 508 kts | 284° |
| 2026-05-07 17:56 | 50.84068 | 8.72997 | 43068 ft | 507 kts | 285° |
| 2026-05-07 17:56 | 50.86083 | 8.62297 | 43068 ft | 507 kts | 284° |
| 2026-05-07 17:57 | 50.87729 | 8.53400 | 43071 ft | 507 kts | 284° |
| 2026-05-07 17:57 | 50.90057 | 8.40861 | 43062 ft | 507 kts | 284° |
| 2026-05-07 17:58 | 50.92027 | 8.30124 | 43058 ft | 507 kts | 284° |
| 2026-05-07 17:58 | 50.93994 | 8.19376 | 43060 ft | 507 kts | 284° |
| 2026-05-07 17:59 | 50.95946 | 8.08636 | 43058 ft | 507 kts | 284° |
| 2026-05-07 17:59 | 50.97893 | 7.97868 | 43059 ft | 507 kts | 284° |
| 2026-05-07 18:00 | 50.99823 | 7.87112 | 43057 ft | 507 kts | 284° |
| 2026-05-07 18:00 | 51.01749 | 7.76333 | 43055 ft | 507 kts | 284° |
| 2026-05-07 18:01 | 51.03661 | 7.65550 | 43059 ft | 507 kts | 284° |
| 2026-05-07 18:01 | 51.05566 | 7.54763 | 43051 ft | 507 kts | 284° |
| 2026-05-07 18:02 | 51.08399 | 7.38574 | 43059 ft | 507 kts | 284° |
| 2026-05-07 18:03 | 51.10279 | 7.27761 | 43062 ft | 507 kts | 284° |
| 2026-05-07 18:03 | 51.12145 | 7.16948 | 43057 ft | 508 kts | 283° |
| 2026-05-07 18:04 | 51.14008 | 7.06105 | 43057 ft | 507 kts | 283° |
| 2026-05-07 18:04 | 51.15854 | 6.95283 | 43063 ft | 507 kts | 283° |
| 2026-05-07 18:05 | 51.17693 | 6.84431 | 43067 ft | 507 kts | 283° |
| 2026-05-07 18:05 | 51.19522 | 6.73575 | 43071 ft | 507 kts | 283° |
| 2026-05-07 18:06 | 51.21329 | 6.62777 | 43079 ft | 507 kts | 283° |
| 2026-05-07 18:06 | 51.23138 | 6.51903 | 43052 ft | 507 kts | 283° |
| 2026-05-07 18:07 | 51.24936 | 6.41025 | 43051 ft | 505 kts | 283° |
| 2026-05-07 18:07 | 51.26716 | 6.30156 | 43054 ft | 507 kts | 283° |
| 2026-05-07 18:08 | 51.28503 | 6.19251 | 43064 ft | 507 kts | 283° |
| 2026-05-07 18:08 | 51.30265 | 6.08361 | 43054 ft | 507 kts | 283° |
| 2026-05-07 18:09 | 51.32024 | 5.97444 | 43008 ft | 508 kts | 283° |
| 2026-05-07 18:09 | 51.32902 | 5.91981 | 42886 ft | 508 kts | 283° |
| 2026-05-07 18:09 | 51.33775 | 5.86511 | 42866 ft | 506 kts | 283° |
| 2026-05-07 18:09 | 51.34639 | 5.81077 | 42998 ft | 504 kts | 282° |
| 2026-05-07 18:10 | 51.35501 | 5.75647 | 43057 ft | 505 kts | 282° |
| 2026-05-07 18:10 | 51.37228 | 5.64702 | 43067 ft | 507 kts | 282° |
| 2026-05-07 18:11 | 51.38946 | 5.53767 | 43075 ft | 506 kts | 282° |
| 2026-05-07 18:11 | 51.40650 | 5.42819 | 43077 ft | 506 kts | 282° |
| 2026-05-07 18:12 | 51.42345 | 5.31878 | 43077 ft | 506 kts | 282° |
| 2026-05-07 18:12 | 51.44032 | 5.20895 | 43082 ft | 507 kts | 282° |
| 2026-05-07 18:13 | 51.45708 | 5.09923 | 43083 ft | 507 kts | 282° |
| 2026-05-07 18:13 | 51.47370 | 4.98957 | 43079 ft | 507 kts | 282° |
| 2026-05-07 18:14 | 51.49028 | 4.87954 | 43077 ft | 507 kts | 282° |
| 2026-05-07 18:14 | 51.50673 | 4.76951 | 43075 ft | 507 kts | 282° |
| 2026-05-07 18:15 | 51.52308 | 4.65939 | 43078 ft | 507 kts | 282° |
| 2026-05-07 18:15 | 51.53924 | 4.54987 | 43076 ft | 507 kts | 282° |
| 2026-05-07 18:16 | 51.55538 | 4.43962 | 43076 ft | 507 kts | 281° |
| 2026-05-07 18:16 | 51.57143 | 4.32926 | 43081 ft | 507 kts | 281° |
| 2026-05-07 18:17 | 51.58736 | 4.21885 | 43076 ft | 507 kts | 281° |
| 2026-05-07 18:17 | 51.60319 | 4.10839 | 43076 ft | 507 kts | 281° |
| 2026-05-07 18:18 | 51.61892 | 3.99784 | 43078 ft | 507 kts | 281° |
| 2026-05-07 18:18 | 51.63455 | 3.88718 | 43078 ft | 507 kts | 281° |
| 2026-05-07 18:19 | 51.65008 | 3.77642 | 43082 ft | 507 kts | 281° |
| 2026-05-07 18:19 | 51.66549 | 3.66566 | 43091 ft | 507 kts | 281° |
| 2026-05-07 18:20 | 51.68079 | 3.55494 | 43088 ft | 507 kts | 281° |
| 2026-05-07 18:20 | 51.69591 | 3.44463 | 43091 ft | 507 kts | 281° |
| 2026-05-07 18:21 | 51.71110 | 3.33296 | 43091 ft | 507 kts | 281° |
| 2026-05-07 18:21 | 51.72585 | 3.22269 | 43083 ft | 506 kts | 279° |
| 2026-05-07 18:22 | 51.72833 | 3.11001 | 43074 ft | 503 kts | 263° |
| 2026-05-07 18:22 | 51.71742 | 2.99874 | 43086 ft | 504 kts | 260° |
| 2026-05-07 18:23 | 51.70838 | 2.88670 | 43087 ft | 503 kts | 262° |
| 2026-05-07 18:23 | 51.69818 | 2.77521 | 43082 ft | 503 kts | 260° |
| 2026-05-07 18:24 | 51.68837 | 2.66351 | 43080 ft | 503 kts | 261° |
| 2026-05-07 18:24 | 51.67833 | 2.55207 | 43079 ft | 503 kts | 261° |
| 2026-05-07 18:25 | 51.66822 | 2.44052 | 43079 ft | 503 kts | 261° |
| 2026-05-07 18:25 | 51.65798 | 2.32909 | 43078 ft | 503 kts | 261° |
| 2026-05-07 18:26 | 51.64762 | 2.21762 | 43073 ft | 503 kts | 261° |
| 2026-05-07 18:26 | 51.63719 | 2.10634 | 43073 ft | 503 kts | 261° |
| 2026-05-07 18:27 | 51.62688 | 1.99489 | 43074 ft | 503 kts | 261° |
| 2026-05-07 18:27 | 51.61652 | 1.88351 | 43074 ft | 504 kts | 261° |
| 2026-05-07 18:28 | 51.60599 | 1.77206 | 43077 ft | 503 kts | 261° |
| 2026-05-07 18:28 | 51.59541 | 1.66085 | 43077 ft | 503 kts | 260° |
| 2026-05-07 18:29 | 51.59218 | 1.56749 | 43065 ft | 504 kts | 272° |
| 2026-05-07 18:29 | 51.59782 | 1.45475 | 43080 ft | 506 kts | 273° |
| 2026-05-07 18:30 | 51.60217 | 1.34187 | 43080 ft | 505 kts | 272° |
| 2026-05-07 18:30 | 51.60706 | 1.22922 | 43082 ft | 505 kts | 273° |
| 2026-05-07 18:31 | 51.61151 | 1.11636 | 43074 ft | 505 kts | 272° |
| 2026-05-07 18:31 | 51.61601 | 1.00346 | 43073 ft | 505 kts | 272° |
| 2026-05-07 18:32 | 51.62033 | 0.89058 | 43081 ft | 506 kts | 272° |
| 2026-05-07 18:32 | 51.62457 | 0.77765 | 43082 ft | 506 kts | 272° |
| 2026-05-07 18:33 | 51.62869 | 0.66475 | 43080 ft | 506 kts | 272° |
| 2026-05-07 18:33 | 51.63267 | 0.55265 | 43080 ft | 506 kts | 272° |
| 2026-05-07 18:34 | 51.63662 | 0.43876 | 43073 ft | 506 kts | 272° |
| 2026-05-07 18:34 | 51.64041 | 0.32583 | 43070 ft | 505 kts | 272° |
| 2026-05-07 18:35 | 51.64891 | 0.21355 | 43058 ft | 507 kts | 283° |
| 2026-05-07 18:35 | 51.67693 | 0.10936 | 43059 ft | 511 kts | 300° |
| 2026-05-07 18:36 | 51.72293 | 0.02159 | 43072 ft | 515 kts | 314° |
| 2026-05-07 18:36 | 51.77518 | -0.05803 | 43073 ft | 516 kts | 313° |
| 2026-05-07 18:36 | 51.79942 | -0.09952 | 42486 ft | 502 kts | 310° |
| 2026-05-07 18:37 | 51.82275 | -0.14040 | 41845 ft | 488 kts | 311° |
| 2026-05-07 18:37 | 51.84633 | -0.17900 | 41188 ft | 476 kts | 313° |
| 2026-05-07 18:37 | 51.86959 | -0.21610 | 40575 ft | 465 kts | 313° |
| 2026-05-07 18:37 | 51.89188 | -0.25318 | 39972 ft | 454 kts | 311° |
| 2026-05-07 18:38 | 51.91343 | -0.28998 | 39379 ft | 447 kts | 311° |
| 2026-05-07 18:38 | 51.93499 | -0.32608 | 38800 ft | 444 kts | 312° |
| 2026-05-07 18:38 | 51.95669 | -0.36179 | 38153 ft | 443 kts | 312° |
| 2026-05-07 18:38 | 51.97818 | -0.39756 | 37572 ft | 445 kts | 311° |
| 2026-05-07 18:39 | 51.99974 | -0.43394 | 36982 ft | 449 kts | 311° |
| 2026-05-07 18:39 | 52.02146 | -0.47050 | 36389 ft | 450 kts | 311° |
| 2026-05-07 18:39 | 52.04293 | -0.50640 | 35798 ft | 449 kts | 311° |
| 2026-05-07 18:39 | 52.06495 | -0.54331 | 35197 ft | 448 kts | 311° |
| 2026-05-07 18:40 | 52.08629 | -0.57935 | 34613 ft | 448 kts | 311° |
| 2026-05-07 18:40 | 52.10815 | -0.61629 | 34006 ft | 446 kts | 311° |
| 2026-05-07 18:40 | 52.12963 | -0.65255 | 33382 ft | 445 kts | 311° |
| 2026-05-07 18:40 | 52.15110 | -0.68886 | 32796 ft | 447 kts | 311° |
| 2026-05-07 18:41 | 52.17271 | -0.72548 | 32203 ft | 448 kts | 311° |
| 2026-05-07 18:41 | 52.19403 | -0.76169 | 31619 ft | 449 kts | 311° |
| 2026-05-07 18:41 | 52.21600 | -0.79901 | 31005 ft | 450 kts | 311° |
| 2026-05-07 18:41 | 52.23772 | -0.83583 | 30409 ft | 452 kts | 312° |
| 2026-05-07 18:42 | 52.26205 | -0.86718 | 29760 ft | 451 kts | 325° |
| 2026-05-07 18:42 | 52.28882 | -0.89349 | 29203 ft | 448 kts | 326° |
| 2026-05-07 18:42 | 52.31547 | -0.91984 | 28602 ft | 448 kts | 326° |
| 2026-05-07 18:42 | 52.34198 | -0.94641 | 28017 ft | 444 kts | 326° |
| 2026-05-07 18:43 | 52.36822 | -0.97270 | 27430 ft | 440 kts | 326° |
| 2026-05-07 18:43 | 52.39427 | -0.99864 | 26855 ft | 436 kts | 326° |
| 2026-05-07 18:43 | 52.42001 | -1.02430 | 26275 ft | 432 kts | 326° |
| 2026-05-07 18:43 | 52.44556 | -1.04993 | 25694 ft | 428 kts | 326° |
| 2026-05-07 18:44 | 52.47090 | -1.07539 | 25129 ft | 425 kts | 326° |
| 2026-05-07 18:44 | 52.49600 | -1.10060 | 24567 ft | 422 kts | 326° |
| 2026-05-07 18:44 | 52.52098 | -1.12570 | 24016 ft | 419 kts | 326° |
| 2026-05-07 18:44 | 52.54580 | -1.15069 | 23430 ft | 417 kts | 326° |
| 2026-05-07 18:45 | 52.57041 | -1.17551 | 22858 ft | 413 kts | 326° |
| 2026-05-07 18:45 | 52.59476 | -1.20008 | 22312 ft | 410 kts | 326° |
| 2026-05-07 18:45 | 52.61904 | -1.22460 | 21771 ft | 408 kts | 326° |
| 2026-05-07 18:45 | 52.64317 | -1.24900 | 21227 ft | 406 kts | 326° |
| 2026-05-07 18:46 | 52.66714 | -1.27329 | 20697 ft | 403 kts | 326° |
| 2026-05-07 18:46 | 52.69089 | -1.29738 | 20166 ft | 400 kts | 326° |
| 2026-05-07 18:46 | 52.71398 | -1.32079 | 19989 ft | 373 kts | 326° |
| 2026-05-07 18:46 | 52.73530 | -1.34245 | 19878 ft | 356 kts | 326° |
| 2026-05-07 18:47 | 52.75711 | -1.36483 | 19457 ft | 382 kts | 326° |
| 2026-05-07 18:47 | 52.77937 | -1.38756 | 18987 ft | 370 kts | 326° |
| 2026-05-07 18:47 | 52.80114 | -1.40969 | 18528 ft | 365 kts | 326° |
| 2026-05-07 18:47 | 52.82265 | -1.43169 | 18045 ft | 363 kts | 326° |
| 2026-05-07 18:48 | 52.84405 | -1.45365 | 17589 ft | 362 kts | 326° |
| 2026-05-07 18:48 | 52.86555 | -1.47566 | 17133 ft | 362 kts | 326° |
| 2026-05-07 18:48 | 52.88686 | -1.49753 | 16684 ft | 361 kts | 326° |
| 2026-05-07 18:48 | 52.90814 | -1.51944 | 16245 ft | 359 kts | 326° |
| 2026-05-07 18:49 | 52.92933 | -1.54117 | 15790 ft | 357 kts | 326° |
| 2026-05-07 18:49 | 52.95034 | -1.56280 | 15345 ft | 355 kts | 326° |
| 2026-05-07 18:49 | 52.97128 | -1.58444 | 14902 ft | 354 kts | 326° |
| 2026-05-07 18:49 | 52.99209 | -1.60595 | 14463 ft | 353 kts | 326° |
| 2026-05-07 18:50 | 53.01289 | -1.62743 | 14024 ft | 351 kts | 326° |
| 2026-05-07 18:50 | 53.03351 | -1.64875 | 13558 ft | 342 kts | 326° |
| 2026-05-07 18:50 | 53.05277 | -1.66974 | 13107 ft | 319 kts | 320° |
| 2026-05-07 18:50 | 53.06737 | -1.69563 | 12735 ft | 300 kts | 307° |
| 2026-05-07 18:51 | 53.08071 | -1.72189 | 12381 ft | 295 kts | 307° |
| 2026-05-07 18:51 | 53.09411 | -1.74770 | 12017 ft | 294 kts | 307° |
| 2026-05-07 18:51 | 53.10745 | -1.77341 | 11647 ft | 293 kts | 307° |
| 2026-05-07 18:51 | 53.12068 | -1.79909 | 11282 ft | 291 kts | 307° |
| 2026-05-07 18:52 | 53.13376 | -1.82435 | 10818 ft | 284 kts | 308° |
| 2026-05-07 18:52 | 53.15066 | -1.84217 | 9926 ft | 296 kts | 338° |
| 2026-05-07 18:52 | 53.17066 | -1.84869 | 9325 ft | 290 kts | 349° |
| 2026-05-07 18:52 | 53.19056 | -1.85289 | 8581 ft | 288 kts | 350° |
| 2026-05-07 18:53 | 53.21039 | -1.85701 | 7904 ft | 286 kts | 350° |
| 2026-05-07 18:53 | 53.23014 | -1.86129 | 7219 ft | 288 kts | 350° |
| 2026-05-07 18:53 | 53.24940 | -1.86565 | 7017 ft | 272 kts | 350° |
| 2026-05-07 18:53 | 53.26761 | -1.86973 | 7015 ft | 258 kts | 350° |
| 2026-05-07 18:54 | 53.28525 | -1.87361 | 7010 ft | 254 kts | 350° |
| 2026-05-07 18:54 | 53.30290 | -1.87756 | 7007 ft | 258 kts | 350° |
| 2026-05-07 18:54 | 53.32100 | -1.88166 | 7007 ft | 260 kts | 350° |
| 2026-05-07 18:54 | 53.33874 | -1.88569 | 7006 ft | 261 kts | 350° |
| 2026-05-07 18:55 | 53.35671 | -1.88976 | 7011 ft | 261 kts | 350° |
| 2026-05-07 18:55 | 53.37474 | -1.89389 | 7014 ft | 262 kts | 350° |
| 2026-05-07 18:55 | 53.39249 | -1.89789 | 6712 ft | 252 kts | 350° |
| 2026-05-07 18:55 | 53.41013 | -1.90193 | 5766 ft | 259 kts | 350° |
| 2026-05-07 18:56 | 53.42820 | -1.90628 | 5059 ft | 266 kts | 350° |
| 2026-05-07 18:56 | 53.44566 | -1.91225 | 4978 ft | 249 kts | 339° |
| 2026-05-07 18:56 | 53.46137 | -1.92467 | 5010 ft | 243 kts | 330° |
| 2026-05-07 18:56 | 53.47559 | -1.93703 | 4921 ft | 220 kts | 330° |
| 2026-05-07 18:57 | 53.48641 | -1.95475 | 3961 ft | 227 kts | 293° |
| 2026-05-07 18:57 | 53.48936 | -1.98035 | 3506 ft | 214 kts | 270° |
| 2026-05-07 18:57 | 53.48581 | -2.00186 | 3431 ft | 179 kts | 229° |
| 2026-05-07 18:57 | 53.47795 | -2.01681 | 3521 ft | 171 kts | 226° |
| 2026-05-07 18:58 | 53.47054 | -2.03231 | 3511 ft | 168 kts | 227° |
| 2026-05-07 18:58 | 53.46334 | -2.04732 | 3491 ft | 166 kts | 227° |
| 2026-05-07 18:58 | 53.45602 | -2.06250 | 3267 ft | 166 kts | 227° |
| 2026-05-07 18:58 | 53.44899 | -2.07716 | 3034 ft | 149 kts | 227° |
| 2026-05-07 18:59 | 53.44314 | -2.08945 | 2850 ft | 124 kts | 226° |
| 2026-05-07 18:59 | 53.43787 | -2.10040 | 2698 ft | 122 kts | 226° |
| 2026-05-07 18:59 | 53.43174 | -2.11298 | 2541 ft | 149 kts | 227° |
| 2026-05-07 18:59 | 53.42525 | -2.12645 | 2335 ft | 150 kts | 228° |
| 2026-05-07 19:00 | 53.41868 | -2.14009 | 2127 ft | 150 kts | 227° |
| 2026-05-07 19:00 | 53.41208 | -2.15380 | 1918 ft | 151 kts | 227° |
| 2026-05-07 19:00 | 53.40547 | -2.16760 | 1708 ft | 153 kts | 228° |
| 2026-05-07 19:00 | 53.39876 | -2.18147 | 1489 ft | 150 kts | 227° |
| 2026-05-07 19:01 | 53.39280 | -2.19406 | 1299 ft | 128 kts | 227° |
| 2026-05-07 19:01 | 53.38736 | -2.20533 | 1114 ft | 123 kts | 227° |
| 2026-05-07 19:01 | 53.38211 | -2.21670 | 960 ft | 125 kts | 229° |
| 2026-05-07 19:01 | 53.37665 | -2.22803 | 785 ft | 125 kts | 227° |
| 2026-05-07 19:02 | 53.37094 | -2.23933 | 589 ft | 127 kts | 229° |
| 2026-05-07 19:02 | 53.36535 | -2.25079 | 406 ft | 127 kts | 230° |
| 2026-05-07 19:02 | 53.35988 | -2.26214 | 246 ft | 122 kts | 229° |
| 2026-05-07 19:02 | 53.35506 | -2.27222 | 239 ft | 101 kts | 231° |
| 2026-05-07 19:03 | 53.35115 | -2.28022 | 250 ft | 76 kts | 230° |
| 2026-05-07 19:03 | 53.34893 | -2.28487 | 258 ft | 27 kts | 231° |
| 2026-05-07 19:03 | 53.34903 | -2.28665 | 258 ft | 18 kts | 324° |
| 2026-05-07 19:03 | 53.34972 | -2.28748 | 257 ft | 0 kts | 336° |
| 2026-05-07 19:05 | 53.35002 | -2.28748 | 257 ft | 6 kts | 21° |
| 2026-05-07 19:05 | 53.35045 | -2.28688 | 256 ft | 9 kts | 49° |
| 2026-05-07 19:05 | 53.35092 | -2.28593 | 255 ft | 13 kts | 46° |
| 2026-05-07 19:05 | 53.35151 | -2.28468 | 254 ft | 16 kts | 52° |
| 2026-05-07 19:06 | 53.35228 | -2.28310 | 252 ft | 20 kts | 46° |
| 2026-05-07 19:06 | 53.35505 | -2.28117 | 250 ft | 24 kts | 31° |
| 2026-05-07 19:06 | 53.35604 | -2.27943 | 248 ft | 19 kts | 50° |
| 2026-05-07 19:07 | 53.35728 | -2.27880 | 247 ft | 14 kts | 7° |
| 2026-05-07 19:07 | 53.35773 | -2.27871 | 247 ft | 0 kts | 5° |
| 2026-05-07 19:10 | 53.35787 | -2.27869 | 247 ft | 4 kts | 5° |
| 2026-05-07 19:10 | 53.35826 | -2.27864 | 247 ft | 7 kts | 6° |
| 2026-05-07 19:10 | 53.35889 | -2.27852 | 246 ft | 11 kts | 6° |
| 2026-05-07 19:10 | 53.35970 | -2.27871 | 246 ft | 13 kts | 338° |
| 2026-05-07 19:11 | 53.36046 | -2.27978 | 247 ft | 15 kts | 310° |
| 2026-05-07 19:11 | 53.36129 | -2.28111 | 248 ft | 17 kts | 321° |
| 2026-05-07 19:11 | 53.36220 | -2.28130 | 247 ft | 11 kts | 47° |
| 2026-05-07 19:11 | 53.36259 | -2.28155 | 247 ft | 9 kts | 315° |
| 2026-05-07 19:12 | 53.36311 | -2.28239 | 248 ft | 12 kts | 318° |
| 2026-05-07 19:12 | 53.36379 | -2.28326 | 248 ft | 10 kts | 352° |
| 2026-05-07 19:12 | 53.36426 | -2.28257 | 247 ft | 9 kts | 69° |
| 2026-05-07 19:12 | 53.36435 | -2.28233 | 247 ft | 0 kts | 47° |